Time;durP1;ratioP1;P1;durP2;ratioP2;P2;SDS_P1;SDS_P2;PMS_P1;PMS_P2;Temp;Humidity;BMP_temperature;BMP_pressure;BME280_temperature;BME280_humidity;BME280_pressure;Samples;Min_cycle;Max_cycle;Signal;HPM_P1;HPM_P2
2022/11/22 00:01:41;;;;;;;38.55;16.13;;;;;;;;;;5055083;28;20033;-79
2022/11/22 00:04:07;;;;;;;24.00;10.13;;;;;;;;;;5021621;28;20040;-80
2022/11/22 00:06:33;;;;;;;39.25;16.15;;;;;;;;;;5054874;28;20513;-79
2022/11/22 00:09:00;;;;;;;28.75;12.15;;;;;;;;;;5057002;28;20438;-80
2022/11/22 00:11:26;;;;;;;35.47;14.52;;;;;;;;;;5041340;28;20562;-78
2022/11/22 00:13:52;;;;;;;39.55;15.60;;;;;;;;;;5054820;28;20041;-78
2022/11/22 00:16:18;;;;;;;39.25;15.63;;;;;;;;;;5056014;28;20503;-78
2022/11/22 00:18:44;;;;;;;32.63;13.10;;;;;;;;;;5054519;28;20041;-78
2022/11/22 00:21:10;;;;;;;26.10;11.73;;;;;;;;;;5054879;28;20040;-78
2022/11/22 00:23:36;;;;;;;36.70;14.10;;;;;;;;;;5039047;28;20128;-78
2022/11/22 00:26:02;;;;;;;27.90;12.68;;;;;;;;;;5039179;28;20052;-80
2022/11/22 00:28:28;;;;;;;35.60;16.27;;;;;;;;;;5055821;28;20123;-80
2022/11/22 00:30:54;;;;;;;34.70;14.60;;;;;;;;;;5062542;28;20068;-80
2022/11/22 00:33:20;;;;;;;32.03;14.00;;;;;;;;;;5053938;28;20045;-79
2022/11/22 00:35:46;;;;;;;32.38;15.00;;;;;;;;;;5054191;28;20045;-80
2022/11/22 00:38:13;;;;;;;31.13;14.13;;;;;;;;;;5053882;28;20424;-80
2022/11/22 00:40:39;;;;;;;34.17;15.63;;;;;;;;;;5055450;28;20041;-82
2022/11/22 00:43:05;;;;;;;34.33;14.35;;;;;;;;;;5055285;28;20028;-78
2022/11/22 00:45:31;;;;;;;32.00;13.68;;;;;;;;;;5087167;28;20051;-79
2022/11/22 00:47:57;;;;;;;31.25;14.25;;;;;;;;;;5056703;28;20504;-79
2022/11/22 00:50:23;;;;;;;30.13;13.45;;;;;;;;;;5054208;28;20486;-79
2022/11/22 00:52:49;;;;;;;27.42;12.90;;;;;;;;;;5053852;28;20138;-79
2022/11/22 00:55:15;;;;;;;24.95;11.07;;;;;;;;;;5054099;28;20036;-79
2022/11/22 00:57:41;;;;;;;27.25;12.18;;;;;;;;;;5020948;28;20041;-76
2022/11/22 01:00:07;;;;;;;30.13;13.73;;;;;;;;;;5053360;28;20135;-78
2022/11/22 01:02:33;;;;;;;24.45;12.57;;;;;;;;;;5050301;28;20045;-79
2022/11/22 01:04:59;;;;;;;26.92;12.15;;;;;;;;;;5065922;28;20087;-78
2022/11/22 01:07:26;;;;;;;29.40;12.40;;;;;;;;;;5053547;28;20040;-79
2022/11/22 01:09:52;;;;;;;26.65;13.50;;;;;;;;;;5053626;28;20044;-80
2022/11/22 01:12:18;;;;;;;26.42;12.75;;;;;;;;;;5053829;28;20044;-80
2022/11/22 01:14:44;;;;;;;23.50;9.98;;;;;;;;;;5053564;28;20063;-80
2022/11/22 01:17:10;;;;;;;25.75;13.00;;;;;;;;;;5053057;28;20055;-80
2022/11/22 01:19:36;;;;;;;22.95;9.20;;;;;;;;;;5036617;28;20045;-80
2022/11/22 01:22:02;;;;;;;24.50;12.05;;;;;;;;;;5053089;28;20439;-80
2022/11/22 01:24:28;;;;;;;22.17;9.77;;;;;;;;;;5052873;28;20051;-80
2022/11/22 01:26:54;;;;;;;31.55;13.48;;;;;;;;;;5052780;28;20049;-80
2022/11/22 01:29:20;;;;;;;22.75;10.43;;;;;;;;;;5052507;28;20057;-80
2022/11/22 01:31:47;;;;;;;26.38;12.30;;;;;;;;;;5053004;28;20083;-78
2022/11/22 01:34:13;;;;;;;27.73;12.80;;;;;;;;;;5035979;28;20124;-79
2022/11/22 01:36:39;;;;;;;30.08;13.93;;;;;;;;;;5036699;28;20533;-79
2022/11/22 01:39:05;;;;;;;28.55;14.43;;;;;;;;;;5052792;28;20037;-78
2022/11/22 01:41:31;;;;;;;26.20;12.82;;;;;;;;;;5047391;28;20478;-80
2022/11/22 01:43:57;;;;;;;30.13;13.55;;;;;;;;;;5044077;28;20048;-80
2022/11/22 01:46:32;;;;;;;31.58;13.77;;;;;;;;;;5052696;28;20102;-80
2022/11/22 01:49:04;;;;;;;19.73;7.95;;;;;;;;;;5052859;28;20040;-81
2022/11/22 01:51:44;;;;;;;27.08;12.93;;;;;;;;;;5052790;28;20036;-79
2022/11/22 01:54:13;;;;;;;25.52;11.65;;;;;;;;;;5035711;28;20140;-79
2022/11/22 01:56:42;;;;;;;26.35;14.18;;;;;;;;;;5053715;28;20493;-78
2022/11/22 01:59:11;;;;;;;27.13;13.43;;;;;;;;;;5052402;28;20433;-79
2022/11/22 02:01:37;;;;;;;32.47;14.60;;;;;;;;;;5035955;28;20490;-78
2022/11/22 02:04:04;;;;;;;27.98;14.05;;;;;;;;;;5052125;28;20155;-79
2022/11/22 02:06:40;;;;;;;26.83;11.50;;;;;;;;;;5052948;28;20515;-79
2022/11/22 02:09:11;;;;;;;24.38;11.45;;;;;;;;;;5063563;28;20044;-79
2022/11/22 02:11:39;;;;;;;26.17;12.95;;;;;;;;;;5038280;28;20539;-79
2022/11/22 02:14:06;;;;;;;27.13;12.88;;;;;;;;;;5052138;28;20396;-78
2022/11/22 02:16:34;;;;;;;29.67;13.80;;;;;;;;;;5052078;28;20142;-78
2022/11/22 02:19:00;;;;;;;24.58;11.77;;;;;;;;;;5053173;28;20041;-78
2022/11/22 02:21:27;;;;;;;29.80;13.30;;;;;;;;;;5035219;28;20041;-79
2022/11/22 02:24:01;;;;;;;31.50;12.95;;;;;;;;;;5053177;28;20044;-79
2022/11/22 02:26:28;;;;;;;25.20;12.80;;;;;;;;;;5044366;28;20037;-79
2022/11/22 02:28:57;;;;;;;26.35;13.30;;;;;;;;;;5028807;28;20106;-79
2022/11/22 02:31:33;;;;;;;28.40;13.68;;;;;;;;;;5039658;28;20442;-80
2022/11/22 02:33:59;;;;;;;28.65;13.60;;;;;;;;;;5035312;28;20387;-79
2022/11/22 02:36:25;;;;;;;26.95;13.55;;;;;;;;;;5052039;28;20049;-80
2022/11/22 02:38:52;;;;;;;25.90;13.48;;;;;;;;;;5052285;28;20049;-79
2022/11/22 02:41:18;;;;;;;26.52;12.80;;;;;;;;;;5051582;28;20040;-80
2022/11/22 02:43:45;;;;;;;26.83;13.60;;;;;;;;;;5035660;28;20099;-80
2022/11/22 02:46:14;;;;;;;23.70;12.68;;;;;;;;;;5052433;28;20473;-80
2022/11/22 02:48:44;;;;;;;27.77;14.00;;;;;;;;;;5051690;28;20041;-80
2022/11/22 02:51:10;;;;;;;24.50;12.90;;;;;;;;;;5067789;28;20402;-80
2022/11/22 02:53:37;;;;;;;28.40;13.32;;;;;;;;;;5034085;28;20175;-80
2022/11/22 02:56:03;;;;;;;29.90;14.27;;;;;;;;;;5051344;28;20500;-80
2022/11/22 02:58:29;;;;;;;24.05;12.65;;;;;;;;;;5034875;28;20085;-80
2022/11/22 03:00:55;;;;;;;28.20;13.05;;;;;;;;;;5049371;28;20041;-80
2022/11/22 03:03:21;;;;;;;26.02;13.65;;;;;;;;;;5050642;28;20182;-79
2022/11/22 03:05:47;;;;;;;25.58;13.65;;;;;;;;;;5050522;28;20045;-80
2022/11/22 03:08:13;;;;;;;26.52;12.55;;;;;;;;;;5051028;28;20047;-80
2022/11/22 03:10:39;;;;;;;28.75;14.18;;;;;;;;;;5052586;28;20441;-80
2022/11/22 03:13:05;;;;;;;31.58;14.50;;;;;;;;;;5050888;28;20401;-80
2022/11/22 03:15:31;;;;;;;26.92;14.15;;;;;;;;;;5051449;28;20044;-80
2022/11/22 03:18:01;;;;;;;25.30;13.82;;;;;;;;;;5050488;28;20124;-80
2022/11/22 03:20:27;;;;;;;27.02;14.38;;;;;;;;;;5050942;28;20045;-80
2022/11/22 03:22:54;;;;;;;25.35;14.40;;;;;;;;;;5052154;28;20037;-80
2022/11/22 03:25:20;;;;;;;27.10;14.13;;;;;;;;;;5066989;28;20049;-80
2022/11/22 03:27:46;;;;;;;26.98;14.90;;;;;;;;;;5051134;28;20116;-80
2022/11/22 03:30:13;;;;;;;28.65;14.13;;;;;;;;;;5050057;28;20056;-79
2022/11/22 03:32:39;;;;;;;31.90;16.33;;;;;;;;;;5050788;28;20044;-79
2022/11/22 03:35:05;;;;;;;26.15;15.15;;;;;;;;;;5084313;28;20056;-79
2022/11/22 03:37:31;;;;;;;27.33;15.93;;;;;;;;;;5051209;28;20041;-80
2022/11/22 03:39:57;;;;;;;28.42;14.82;;;;;;;;;;5034363;28;20045;-79
2022/11/22 03:42:24;;;;;;;28.23;14.70;;;;;;;;;;5033779;28;20044;-79
2022/11/22 03:44:50;;;;;;;27.33;15.40;;;;;;;;;;5052046;28;20052;-79
2022/11/22 03:47:16;;;;;;;33.33;15.95;;;;;;;;;;5033869;28;20068;-79
2022/11/22 03:49:42;;;;;;;30.10;15.63;;;;;;;;;;5034410;28;20048;-80
2022/11/22 03:52:08;;;;;;;29.25;14.75;;;;;;;;;;5050781;28;20112;-80
2022/11/22 03:54:34;;;;;;;30.13;15.95;;;;;;;;;;5051344;28;20040;-79
2022/11/22 03:57:00;;;;;;;33.65;15.63;;;;;;;;;;5035578;28;20095;-80
2022/11/22 03:59:26;;;;;;;25.27;13.68;;;;;;;;;;5051460;28;20045;-80
2022/11/22 04:01:52;;;;;;;31.92;16.08;;;;;;;;;;5061609;28;20046;-79
2022/11/22 04:04:18;;;;;;;30.27;16.05;;;;;;;;;;5057069;28;20044;-78
2022/11/22 04:06:44;;;;;;;31.20;16.15;;;;;;;;;;5051704;28;20426;-79
2022/11/22 04:09:10;;;;;;;29.67;15.65;;;;;;;;;;5065245;28;20048;-80
2022/11/22 04:11:36;;;;;;;33.05;16.45;;;;;;;;;;5034291;28;20044;-80
2022/11/22 04:16:47;;;;;;;31.85;16.20;;;;;;;;;;5070396;28;20127;-79
2022/11/22 04:19:13;;;;;;;34.45;15.98;;;;;;;;;;5038006;28;20052;-78
2022/11/22 04:21:39;;;;;;;36.03;16.60;;;;;;;;;;5079021;28;20050;-79
2022/11/22 04:26:52;;;;;;;27.27;15.77;;;;;;;;;;5050365;28;20080;-79
2022/11/22 04:29:19;;;;;;;33.42;16.95;;;;;;;;;;5050342;28;20081;-79
2022/11/22 04:34:30;;;;;;;34.45;15.43;;;;;;;;;;5054306;28;20083;-79
2022/11/22 04:36:56;;;;;;;39.35;17.88;;;;;;;;;;5049845;28;20052;-78
2022/11/22 04:39:22;;;;;;;31.95;16.77;;;;;;;;;;5043903;28;20124;-79
2022/11/22 04:44:39;;;;;;;36.08;17.50;;;;;;;;;;5040926;28;20071;-79
2022/11/22 04:44:40;;;;;;;31.85;16.75;;;;;;;;;;5054753;28;20190;-79
2022/11/22 04:47:10;;;;;;;33.13;16.02;;;;;;;;;;5053878;28;20037;-79
2022/11/22 04:49:36;;;;;;;30.38;16.20;;;;;;;;;;5053648;28;20516;-79
2022/11/22 04:54:47;;;;;;;35.40;16.88;;;;;;;;;;5053797;28;20040;-78
2022/11/22 04:57:14;;;;;;;30.45;14.65;;;;;;;;;;5037020;28;20036;-79
2022/11/22 04:59:40;;;;;;;35.92;16.65;;;;;;;;;;5087616;28;20493;-79
2022/11/22 05:02:06;;;;;;;38.97;17.67;;;;;;;;;;5052174;28;20052;-79
2022/11/22 05:04:32;;;;;;;38.10;17.55;;;;;;;;;;5053114;28;20110;-79
2022/11/22 05:06:58;;;;;;;33.88;15.43;;;;;;;;;;5052970;28;20175;-79
2022/11/22 05:09:24;;;;;;;31.35;14.80;;;;;;;;;;5053074;28;20048;-80
2022/11/22 05:11:50;;;;;;;35.70;15.05;;;;;;;;;;5053653;28;20049;-80
2022/11/22 05:14:16;;;;;;;32.05;16.67;;;;;;;;;;5040139;28;20478;-80
2022/11/22 05:16:42;;;;;;;33.55;15.60;;;;;;;;;;5054190;28;20485;-79
2022/11/22 05:19:08;;;;;;;31.00;15.45;;;;;;;;;;5053484;28;20051;-79
2022/11/22 05:21:36;;;;;;;33.15;15.45;;;;;;;;;;5049640;28;20533;-79
2022/11/22 05:24:02;;;;;;;34.67;16.38;;;;;;;;;;5044851;28;20056;-79
2022/11/22 05:26:28;;;;;;;33.90;15.40;;;;;;;;;;5052765;28;20411;-79
2022/11/22 05:28:56;;;;;;;37.97;15.65;;;;;;;;;;5053201;28;20048;-79
2022/11/22 05:31:23;;;;;;;31.73;15.40;;;;;;;;;;5053121;28;20124;-79
2022/11/22 05:33:50;;;;;;;37.38;15.88;;;;;;;;;;5049921;28;20041;-79
2022/11/22 05:36:16;;;;;;;35.58;15.20;;;;;;;;;;5036873;28;20041;-79
2022/11/22 05:38:42;;;;;;;33.35;15.75;;;;;;;;;;5036051;28;20037;-79
2022/11/22 05:41:10;;;;;;;43.75;15.75;;;;;;;;;;5052121;28;20132;-79
2022/11/22 05:43:37;;;;;;;34.53;14.20;;;;;;;;;;5039429;28;20040;-79
2022/11/22 05:46:06;;;;;;;35.42;14.98;;;;;;;;;;5053648;28;20497;-79
2022/11/22 05:48:32;;;;;;;36.17;15.63;;;;;;;;;;5052384;28;20045;-79
2022/11/22 05:50:58;;;;;;;32.70;14.90;;;;;;;;;;5045200;28;20044;-79
2022/11/22 05:53:24;;;;;;;39.47;14.95;;;;;;;;;;5045856;28;20040;-78
2022/11/22 05:55:50;;;;;;;34.60;14.85;;;;;;;;;;5035801;28;20033;-79
2022/11/22 05:58:16;;;;;;;37.03;15.00;;;;;;;;;;5036175;28;20086;-79
2022/11/22 06:00:42;;;;;;;39.00;14.95;;;;;;;;;;5052493;28;20712;-79
2022/11/22 06:03:08;;;;;;;41.47;14.80;;;;;;;;;;5018701;28;20120;-79
2022/11/22 06:05:35;;;;;;;31.48;14.25;;;;;;;;;;5043986;28;20131;-79
2022/11/22 06:08:01;;;;;;;34.30;14.02;;;;;;;;;;5021859;28;20120;-79
2022/11/22 06:10:28;;;;;;;35.80;14.55;;;;;;;;;;5052468;28;20505;-78
2022/11/22 06:12:54;;;;;;;33.88;13.32;;;;;;;;;;5053396;28;20098;-78
2022/11/22 06:15:21;;;;;;;36.78;14.45;;;;;;;;;;5052105;28;20095;-79
2022/11/22 06:17:47;;;;;;;34.65;14.30;;;;;;;;;;5053170;28;20490;-79
2022/11/22 06:20:13;;;;;;;34.42;14.30;;;;;;;;;;5053407;28;20086;-79
2022/11/22 06:22:39;;;;;;;39.28;14.07;;;;;;;;;;5051620;28;20080;-78
2022/11/22 06:25:06;;;;;;;41.60;14.23;;;;;;;;;;5053328;28;20045;-79
2022/11/22 06:27:32;;;;;;;39.00;15.13;;;;;;;;;;5051745;28;20044;-79
2022/11/22 06:29:58;;;;;;;36.63;13.23;;;;;;;;;;5052892;28;20049;-79
2022/11/22 06:32:24;;;;;;;35.00;13.73;;;;;;;;;;5051678;28;20048;-79
2022/11/22 06:34:50;;;;;;;36.78;12.93;;;;;;;;;;5053329;28;20041;-79
2022/11/22 06:37:16;;;;;;;33.10;12.52;;;;;;;;;;5051963;28;20492;-78
2022/11/22 06:39:42;;;;;;;34.33;13.10;;;;;;;;;;5051941;28;20064;-78
2022/11/22 06:42:08;;;;;;;31.42;13.40;;;;;;;;;;5052059;28;20051;-78
2022/11/22 06:44:34;;;;;;;34.15;13.15;;;;;;;;;;5051550;28;20095;-79
2022/11/22 06:47:00;;;;;;;30.10;11.20;;;;;;;;;;5051536;28;20056;-79
2022/11/22 06:49:26;;;;;;;33.65;12.68;;;;;;;;;;5051675;28;20132;-79
2022/11/22 06:51:52;;;;;;;32.20;11.90;;;;;;;;;;5051176;28;20037;-78
2022/11/22 06:54:18;;;;;;;26.95;11.70;;;;;;;;;;5052700;28;20095;-78
2022/11/22 06:56:45;;;;;;;28.55;10.57;;;;;;;;;;5051228;28;20103;-79
2022/11/22 06:59:11;;;;;;;32.95;11.88;;;;;;;;;;5051820;28;20452;-79
2022/11/22 07:01:37;;;;;;;35.38;10.85;;;;;;;;;;5058498;28;20080;-79
2022/11/22 07:04:04;;;;;;;33.55;11.57;;;;;;;;;;5057856;28;20045;-79
2022/11/22 07:06:31;;;;;;;35.65;10.95;;;;;;;;;;5051155;28;20053;-79
2022/11/22 07:08:58;;;;;;;26.48;10.73;;;;;;;;;;5051279;28;20045;-79
2022/11/22 07:11:26;;;;;;;29.52;9.82;;;;;;;;;;5051470;28;20071;-79
2022/11/22 07:13:52;;;;;;;24.95;10.15;;;;;;;;;;5051445;28;20056;-79
2022/11/22 07:16:19;;;;;;;31.27;10.18;;;;;;;;;;5051931;28;20044;-79
2022/11/22 07:18:46;;;;;;;25.85;9.15;;;;;;;;;;5052376;28;20405;-79
2022/11/22 07:21:13;;;;;;;26.05;8.82;;;;;;;;;;5051471;28;20393;-79
2022/11/22 07:23:39;;;;;;;21.30;8.40;;;;;;;;;;5051406;28;20678;-78
2022/11/22 07:26:06;;;;;;;28.50;9.13;;;;;;;;;;5051820;28;20405;-79
2022/11/22 07:28:32;;;;;;;28.08;8.57;;;;;;;;;;5052120;28;20040;-79
2022/11/22 07:30:59;;;;;;;23.73;7.25;;;;;;;;;;5052756;28;20053;-80
2022/11/22 07:33:25;;;;;;;26.23;7.97;;;;;;;;;;5040415;28;20120;-78
2022/11/22 07:35:51;;;;;;;23.85;7.65;;;;;;;;;;5051525;28;20056;-80
2022/11/22 07:38:17;;;;;;;21.83;8.15;;;;;;;;;;5052034;28;20130;-81
2022/11/22 07:40:43;;;;;;;26.65;7.38;;;;;;;;;;5052396;28;20045;-80
2022/11/22 07:43:10;;;;;;;25.70;6.70;;;;;;;;;;5052536;28;20448;-80
2022/11/22 07:45:36;;;;;;;26.88;8.00;;;;;;;;;;5029085;28;20056;-80
2022/11/22 07:48:02;;;;;;;26.17;6.80;;;;;;;;;;5043982;28;20536;-80
2022/11/22 07:50:28;;;;;;;22.33;6.13;;;;;;;;;;5051096;28;20039;-80
2022/11/22 07:52:58;;;;;;;27.50;6.60;;;;;;;;;;5051340;28;20041;-80
2022/11/22 07:55:25;;;;;;;27.27;7.45;;;;;;;;;;5037865;28;20056;-80
2022/11/22 07:57:52;;;;;;;21.20;5.95;;;;;;;;;;5059891;28;20119;-80
2022/11/22 08:00:18;;;;;;;18.38;5.38;;;;;;;;;;5042881;28;20041;-80
2022/11/22 08:02:45;;;;;;;21.35;5.53;;;;;;;;;;5052048;28;20037;-80
2022/11/22 08:05:11;;;;;;;23.17;5.68;;;;;;;;;;5052769;28;20083;-80
2022/11/22 08:07:37;;;;;;;22.08;5.85;;;;;;;;;;5038309;28;20041;-80
2022/11/22 08:10:04;;;;;;;14.95;5.00;;;;;;;;;;5088786;28;20045;-80
2022/11/22 08:12:30;;;;;;;21.02;5.10;;;;;;;;;;5055600;28;20041;-80
2022/11/22 08:14:56;;;;;;;19.17;5.22;;;;;;;;;;5056382;28;20567;-80
2022/11/22 08:17:22;;;;;;;16.02;5.13;;;;;;;;;;5055169;28;20044;-80
2022/11/22 08:19:52;;;;;;;14.98;5.07;;;;;;;;;;5054310;28;20095;-80
2022/11/22 08:22:18;;;;;;;19.77;5.38;;;;;;;;;;5054801;28;20040;-80
2022/11/22 08:24:44;;;;;;;15.57;4.93;;;;;;;;;;5054396;28;20119;-80
2022/11/22 08:27:10;;;;;;;15.35;4.82;;;;;;;;;;5054530;28;20037;-80
2022/11/22 08:29:37;;;;;;;17.45;4.70;;;;;;;;;;5054133;28;20060;-81
2022/11/22 08:32:03;;;;;;;20.45;4.80;;;;;;;;;;5054219;28;20112;-80
2022/11/22 08:34:29;;;;;;;13.63;4.50;;;;;;;;;;5054149;28;20048;-80
2022/11/22 08:36:55;;;;;;;20.73;4.50;;;;;;;;;;5054442;28;20036;-80
2022/11/22 08:39:21;;;;;;;16.20;5.53;;;;;;;;;;5054608;28;20427;-80
2022/11/22 08:41:47;;;;;;;15.25;4.38;;;;;;;;;;5053829;28;20041;-80
2022/11/22 08:44:13;;;;;;;15.60;3.97;;;;;;;;;;5053881;28;20144;-80
2022/11/22 08:46:39;;;;;;;12.25;4.50;;;;;;;;;;5037447;28;20048;-79
2022/11/22 08:49:06;;;;;;;16.80;5.45;;;;;;;;;;5053785;28;20090;-79
2022/11/22 08:51:33;;;;;;;12.82;4.35;;;;;;;;;;5053791;28;20044;-79
2022/11/22 08:53:59;;;;;;;16.90;4.18;;;;;;;;;;5056089;28;20094;-79
2022/11/22 08:56:25;;;;;;;17.20;5.03;;;;;;;;;;5054053;28;20048;-79
2022/11/22 08:58:51;;;;;;;13.90;4.65;;;;;;;;;;5053903;28;20501;-79
2022/11/22 09:01:20;;;;;;;15.38;4.90;;;;;;;;;;5053620;28;20052;-79
2022/11/22 09:03:46;;;;;;;11.18;3.90;;;;;;;;;;5037065;28;20036;-79
2022/11/22 09:06:13;;;;;;;15.55;4.60;;;;;;;;;;5053109;28;20037;-79
2022/11/22 09:08:39;;;;;;;13.88;4.85;;;;;;;;;;5053878;28;20553;-78
2022/11/22 09:11:07;;;;;;;12.20;4.15;;;;;;;;;;5053384;28;20402;-79
2022/11/22 09:13:33;;;;;;;13.43;4.18;;;;;;;;;;5054984;28;20596;-79
2022/11/22 09:16:03;;;;;;;14.90;4.72;;;;;;;;;;5052998;28;20437;-79
2022/11/22 09:18:29;;;;;;;13.43;4.15;;;;;;;;;;5039636;28;20119;-79
2022/11/22 09:21:02;;;;;;;12.15;4.93;;;;;;;;;;5053126;28;20494;-79
2022/11/22 09:23:29;;;;;;;13.07;4.47;;;;;;;;;;5053383;28;20087;-79
2022/11/22 09:25:59;;;;;;;13.82;4.50;;;;;;;;;;5052766;28;20120;-79
2022/11/22 09:28:26;;;;;;;14.18;4.35;;;;;;;;;;5053350;28;20397;-79
2022/11/22 09:30:58;;;;;;;15.25;4.10;;;;;;;;;;5052685;28;20063;-79
2022/11/22 09:33:24;;;;;;;16.02;4.53;;;;;;;;;;5053078;28;20037;-79
2022/11/22 09:35:50;;;;;;;12.52;4.00;;;;;;;;;;5052504;28;20041;-79
2022/11/22 09:38:16;;;;;;;12.95;4.13;;;;;;;;;;5035353;28;20048;-78
2022/11/22 09:40:46;;;;;;;12.25;4.03;;;;;;;;;;5040144;28;20041;-78
2022/11/22 09:43:15;;;;;;;13.73;3.90;;;;;;;;;;5052928;28;20084;-78
2022/11/22 09:45:47;;;;;;;11.50;4.18;;;;;;;;;;5040143;28;20040;-79
2022/11/22 09:48:16;;;;;;;12.40;4.03;;;;;;;;;;5052711;28;20071;-79
2022/11/22 09:50:55;;;;;;;10.65;4.70;;;;;;;;;;5052754;28;20486;-79
2022/11/22 09:53:29;;;;;;;13.07;4.88;;;;;;;;;;5054268;28;20539;-79
2022/11/22 09:56:00;;;;;;;14.18;5.03;;;;;;;;;;5038830;28;20076;-79
2022/11/22 09:58:47;;;;;;;18.52;5.53;;;;;;;;;;5052724;28;20514;-79
2022/11/22 10:01:32;;;;;;;11.93;4.80;;;;;;;;;;5040437;28;20557;-79
2022/11/22 10:04:04;;;;;;;12.82;4.57;;;;;;;;;;5052688;28;20091;-79
2022/11/22 10:06:41;;;;;;;15.85;5.00;;;;;;;;;;5052155;28;20049;-79
2022/11/22 10:09:19;;;;;;;15.70;4.43;;;;;;;;;;5052514;28;20429;-78
2022/11/22 10:11:45;;;;;;;13.48;3.97;;;;;;;;;;5039679;28;20045;-79
2022/11/22 10:14:20;;;;;;;8.77;3.13;;;;;;;;;;5052222;28;20055;-79
2022/11/22 10:16:50;;;;;;;10.07;3.50;;;;;;;;;;5072055;28;20037;-79
2022/11/22 10:19:29;;;;;;;12.13;3.35;;;;;;;;;;5052303;28;20496;-79
2022/11/22 10:21:55;;;;;;;11.10;3.17;;;;;;;;;;5022209;28;20043;-79
2022/11/22 10:24:21;;;;;;;10.10;3.50;;;;;;;;;;5052361;28;20493;-79
2022/11/22 10:26:48;;;;;;;11.48;3.35;;;;;;;;;;5035038;28;20127;-79
2022/11/22 10:29:33;;;;;;;7.60;2.92;;;;;;;;;;5035018;28;20519;-79
2022/11/22 10:32:18;;;;;;;7.60;2.90;;;;;;;;;;5051620;28;20045;-79
2022/11/22 10:34:47;;;;;;;7.90;3.05;;;;;;;;;;5052227;28;20037;-79
2022/11/22 10:37:13;;;;;;;7.93;2.60;;;;;;;;;;5051438;28;20041;-78
2022/11/22 10:40:01;;;;;;;10.45;2.88;;;;;;;;;;5036257;28;20048;-79
2022/11/22 10:42:41;;;;;;;9.98;2.95;;;;;;;;;;5040956;28;20067;-79
2022/11/22 10:45:14;;;;;;;10.15;3.00;;;;;;;;;;5034918;28;20047;-80
2022/11/22 10:47:40;;;;;;;9.75;2.63;;;;;;;;;;5051765;28;20040;-79
2022/11/22 10:50:29;;;;;;;9.55;2.70;;;;;;;;;;5051878;28;20478;-79
2022/11/22 10:52:55;;;;;;;10.38;2.63;;;;;;;;;;5051564;28;20049;-79
2022/11/22 10:55:21;;;;;;;10.30;2.67;;;;;;;;;;5051113;28;20049;-79
2022/11/22 10:58:06;;;;;;;9.80;2.60;;;;;;;;;;5051890;28;20559;-79
2022/11/22 11:00:32;;;;;;;6.75;2.40;;;;;;;;;;5051863;28;20045;-79
2022/11/22 11:02:58;;;;;;;11.63;3.13;;;;;;;;;;5065536;28;20072;-79
2022/11/22 11:05:37;;;;;;;9.40;2.40;;;;;;;;;;5051186;28;20539;-79
2022/11/22 11:08:04;;;;;;;11.13;2.58;;;;;;;;;;5050912;28;20040;-78
2022/11/22 11:10:35;;;;;;;5.57;2.28;;;;;;;;;;5051671;28;20493;-79
2022/11/22 11:13:15;;;;;;;8.88;2.42;;;;;;;;;;5051447;28;20120;-79
2022/11/22 11:15:47;;;;;;;11.00;2.50;;;;;;;;;;5051229;28;20067;-79
2022/11/22 11:18:18;;;;;;;9.45;2.42;;;;;;;;;;5051001;28;20048;-79
2022/11/22 11:20:46;;;;;;;9.55;2.63;;;;;;;;;;5051418;28;20079;-79
2022/11/22 11:23:13;;;;;;;6.13;1.90;;;;;;;;;;5050805;28;20059;-79
2022/11/22 11:25:41;;;;;;;5.78;2.00;;;;;;;;;;5051371;28;20402;-79
2022/11/22 11:28:12;;;;;;;5.57;1.90;;;;;;;;;;5050793;28;20068;-80
2022/11/22 11:30:38;;;;;;;8.05;1.90;;;;;;;;;;5059695;28;20056;-79
2022/11/22 11:33:14;;;;;;;6.53;2.17;;;;;;;;;;5057958;28;20577;-79
2022/11/22 11:35:40;;;;;;;;;;;;;;;;;;5039814;28;20090;-79
2022/11/22 11:38:25;;;;;;;6.30;1.83;;;;;;;;;;5051087;28;20401;-79
2022/11/22 11:40:51;;;;;;;7.70;1.95;;;;;;;;;;5054745;28;20087;-79
2022/11/22 11:43:21;;;;;;;7.90;2.55;;;;;;;;;;5055213;28;20518;-80
2022/11/22 11:45:48;;;;;;;10.77;2.55;;;;;;;;;;5055182;28;20049;-79
2022/11/22 11:48:36;;;;;;;7.88;2.20;;;;;;;;;;5055083;28;20102;-79
2022/11/22 11:51:21;;;;;;;9.43;2.50;;;;;;;;;;5044229;28;20044;-80
2022/11/22 11:53:56;;;;;;;9.00;2.40;;;;;;;;;;5055042;28;20051;-79
2022/11/22 11:56:25;;;;;;;9.48;2.17;;;;;;;;;;5056325;28;20436;-79
2022/11/22 11:58:52;;;;;;;8.20;2.25;;;;;;;;;;5054732;28;20045;-79
2022/11/22 12:01:19;;;;;;;10.52;2.40;;;;;;;;;;5039095;28;20037;-80
2022/11/22 12:03:53;;;;;;;7.90;2.60;;;;;;;;;;5065150;28;20044;-79
2022/11/22 12:06:20;;;;;;;9.93;2.50;;;;;;;;;;5055533;28;20037;-80
2022/11/22 12:08:46;;;;;;;7.97;2.20;;;;;;;;;;5054584;28;20048;-80
2022/11/22 12:11:16;;;;;;;4.82;2.20;;;;;;;;;;5054535;28;20048;-79
2022/11/22 12:13:44;;;;;;;10.68;2.55;;;;;;;;;;5054908;28;20485;-79
2022/11/22 12:16:30;;;;;;;8.35;2.20;;;;;;;;;;5054639;28;20414;-79
2022/11/22 12:19:03;;;;;;;6.60;2.05;;;;;;;;;;5054467;28;20045;-79
2022/11/22 12:21:49;;;;;;;6.53;2.25;;;;;;;;;;5037744;28;20056;-79
2022/11/22 12:24:18;;;;;;;9.25;2.42;;;;;;;;;;5030576;28;20052;-79
2022/11/22 12:26:44;;;;;;;7.10;2.17;;;;;;;;;;5054281;28;20041;-79
2022/11/22 12:29:14;;;;;;;8.07;2.20;;;;;;;;;;5053908;28;20090;-79
2022/11/22 12:31:47;;;;;;;6.60;1.90;;;;;;;;;;5054650;28;20076;-79
2022/11/22 12:34:17;;;;;;;9.10;2.20;;;;;;;;;;5053928;28;20075;-79
2022/11/22 12:36:48;;;;;;;8.32;2.28;;;;;;;;;;5037696;28;20041;-79
2022/11/22 12:39:17;;;;;;;11.40;3.00;;;;;;;;;;5054337;28;20120;-79
2022/11/22 12:41:44;;;;;;;10.27;2.40;;;;;;;;;;5054348;28;20447;-80
2022/11/22 12:44:13;;;;;;;8.27;2.30;;;;;;;;;;5054059;28;20033;-79
2022/11/22 12:46:41;;;;;;;9.20;2.20;;;;;;;;;;5053853;28;20059;-79
2022/11/22 12:49:14;;;;;;;9.55;1.95;;;;;;;;;;5054292;28;20461;-79
2022/11/22 12:51:52;;;;;;;9.85;2.33;;;;;;;;;;5037575;28;20041;-79
2022/11/22 12:54:24;;;;;;;8.35;2.13;;;;;;;;;;5040780;28;20040;-80
2022/11/22 12:56:54;;;;;;;8.05;2.08;;;;;;;;;;5053883;28;20049;-79
2022/11/22 12:59:24;;;;;;;8.32;2.10;;;;;;;;;;5055181;28;20044;-79
2022/11/22 13:02:11;;;;;;;10.95;2.30;;;;;;;;;;5037739;28;20086;-77
2022/11/22 13:04:37;;;;;;;;;;;;;;;;;;5038355;28;20121;-79
2022/11/22 13:07:03;;;;;;;8.75;1.83;;;;;;;;;;5054294;28;19916;-80
2022/11/22 13:09:41;;;;;;;5.63;1.77;;;;;;;;;;5053855;28;20051;-80
2022/11/22 13:12:15;;;;;;;8.23;2.08;;;;;;;;;;5054118;28;20052;-80
2022/11/22 13:14:46;;;;;;;6.53;1.90;;;;;;;;;;5055462;28;20508;-79
2022/11/22 13:17:14;;;;;;;7.82;2.03;;;;;;;;;;5055228;28;20497;-78
2022/11/22 13:20:06;;;;;;;9.27;2.20;;;;;;;;;;5053197;28;20044;-79
2022/11/22 13:22:39;;;;;;;11.30;2.40;;;;;;;;;;5050887;28;20057;-79
2022/11/22 13:25:24;;;;;;;7.57;1.98;;;;;;;;;;5053325;28;20045;-80
2022/11/22 13:27:51;;;;;;;5.88;1.90;;;;;;;;;;5053527;28;20494;-79
2022/11/22 13:30:21;;;;;;;6.22;1.70;;;;;;;;;;5036714;28;20049;-79
2022/11/22 13:32:55;;;;;;;7.63;1.92;;;;;;;;;;5053768;28;20080;-79
2022/11/22 13:35:27;;;;;;;6.47;1.80;;;;;;;;;;5068935;28;20080;-79
2022/11/22 13:37:55;;;;;;;6.75;1.80;;;;;;;;;;5054326;28;20124;-79
2022/11/22 13:40:23;;;;;;;6.45;1.52;;;;;;;;;;5054526;28;20464;-79
2022/11/22 13:43:08;;;;;;;6.70;1.65;;;;;;;;;;5053823;28;20037;-79
2022/11/22 13:45:54;;;;;;;7.35;1.50;;;;;;;;;;5038514;28;20047;-79
2022/11/22 13:48:38;;;;;;;4.90;1.70;;;;;;;;;;5052843;28;20043;-77
2022/11/22 13:51:05;;;;;;;6.63;1.58;;;;;;;;;;5042515;28;20390;-79
2022/11/22 13:53:33;;;;;;;5.13;1.70;;;;;;;;;;5053716;28;20116;-78
2022/11/22 13:56:15;;;;;;;6.10;1.60;;;;;;;;;;5054091;28;20095;-79
2022/11/22 13:58:44;;;;;;;6.35;1.90;;;;;;;;;;5054499;28;20588;-80
2022/11/22 14:01:29;;;;;;;6.18;1.80;;;;;;;;;;5037663;28;20040;-80
2022/11/22 14:04:15;;;;;;;5.05;1.70;;;;;;;;;;5067759;28;20069;-80
2022/11/22 14:07:04;;;;;;;5.90;1.75;;;;;;;;;;5049961;28;20106;-79
2022/11/22 14:09:37;;;;;;;8.63;1.77;;;;;;;;;;5025628;28;20037;-79
2022/11/22 14:12:09;;;;;;;5.35;1.60;;;;;;;;;;5053587;28;20090;-79
2022/11/22 14:14:38;;;;;;;5.63;1.90;;;;;;;;;;5053763;28;20040;-79
2022/11/22 14:17:24;;;;;;;5.82;1.70;;;;;;;;;;5037296;28;20033;-79
2022/11/22 14:19:50;;;;;;;2.85;1.33;;;;;;;;;;5054333;28;20485;-78
2022/11/22 14:22:28;;;;;;;6.68;2.08;;;;;;;;;;5052721;28;20041;-78
2022/11/22 14:25:14;;;;;;;5.93;1.80;;;;;;;;;;5053979;28;20041;-79
2022/11/22 14:27:47;;;;;;;8.50;1.88;;;;;;;;;;5053012;28;20482;-78
2022/11/22 14:30:20;;;;;;;6.18;1.88;;;;;;;;;;5052410;28;20053;-78
2022/11/22 14:32:51;;;;;;;6.05;1.70;;;;;;;;;;5053159;28;20498;-78
2022/11/22 14:35:23;;;;;;;4.57;1.67;;;;;;;;;;5038709;28;20037;-77
2022/11/22 14:38:07;;;;;;;9.80;1.50;;;;;;;;;;5053644;28;20056;-78
2022/11/22 14:40:33;;;;;;;3.88;1.45;;;;;;;;;;5052184;28;20056;-78
2022/11/22 14:43:01;;;;;;;4.75;1.55;;;;;;;;;;5053610;28;20094;-78
2022/11/22 14:45:35;;;;;;;5.20;1.55;;;;;;;;;;5053167;28;20055;-79
2022/11/22 14:48:04;;;;;;;3.25;1.55;;;;;;;;;;5052522;28;20052;-79
2022/11/22 14:50:41;;;;;;;4.38;1.58;;;;;;;;;;5053812;28;20044;-79